DENVER INTL

KDEN (DEN)
Denver, Colorado
Towered

Vatsim Metar:
KDEN 131053Z 21009KT 10SM CLR 18/05 A3013 RMK AO2 SLP110 T01830050

No ATC Online

Traffic

Inbound:
Ident
Type
Name
ETA
Phase
UAL407
B752/L
Tim Bryant YMMB
12:10 Z
Descent
DLH480
H/B748/L
Mauricio Ravilet CYUL
14:04 Z
Cruse

Outbound:
Ident
Type
Name
Destination
Phase

SIDs

STARS

Alternate Minimums

Hot Spots